Time;durP1;ratioP1;P1;durP2;ratioP2;P2;SDS_P1;SDS_P2;PMS_P1;PMS_P2;Temp;Humidity;BMP_temperature;BMP_pressure;BME280_temperature;BME280_humidity;BME280_pressure;Samples;Min_cycle;Max_cycle;Signal;HPM_P1;HPM_P2
2021/12/16 00:06:46;;;;;;;27.20;13.53;;;2.50;95.10;;;2.19;67.74;95901.78;5078777;28;20823;-57
2021/12/16 00:09:11;;;;;;;27.80;13.17;;;2.50;95.20;;;2.17;68.29;95901.00;5078177;28;20447;-56
2021/12/16 00:31:20;;;;;;;21.87;11.67;;;2.50;95.20;;;2.17;68.26;95916.56;5084044;28;20453;-56
2021/12/16 00:33:59;;;;;;;21.53;10.67;;;2.50;95.20;;;2.18;68.20;95918.25;5083090;28;20489;-57
2021/12/16 00:36:26;;;;;;;23.97;12.90;;;2.50;95.10;;;2.17;67.67;95908.78;5079635;28;20465;-56
2021/12/16 00:38:54;;;;;;;19.37;11.80;;;2.50;95.20;;;2.18;67.36;95917.41;5077539;28;20945;-57
2021/12/16 00:41:21;;;;;;;24.80;12.77;;;2.50;95.10;;;2.17;68.10;95919.16;5082516;28;20473;-58
2021/12/16 00:43:53;;;;;;;28.83;13.00;;;2.50;95.20;;;2.19;68.16;95922.53;5075212;28;20958;-57
2021/12/16 00:46:53;;;;;;;24.87;13.60;;;2.50;95.30;;;2.21;67.45;95914.69;5073619;28;20584;-56
2021/12/16 00:49:32;;;;;;;22.57;11.63;;;2.50;95.20;;;2.22;68.01;95912.03;5079196;28;20442;-57
2021/12/16 00:54:49;;;;;;;21.07;11.27;;;2.50;95.10;;;2.22;68.03;95913.78;5077011;28;20471;-57
2021/12/16 00:57:25;;;;;;;21.57;11.83;;;2.50;95.20;;;2.22;68.19;95921.56;5079311;28;20484;-56
2021/12/16 00:59:55;;;;;;;29.50;14.13;;;2.50;95.20;;;2.22;67.36;95916.38;5077960;28;20458;-57
2021/12/16 01:02:41;;;;;;;21.77;12.03;;;2.50;95.00;;;2.23;68.25;95924.09;5079937;28;20480;-57
2021/12/16 01:05:44;;;;;;;21.73;11.07;;;2.60;95.20;;;2.25;67.78;95918.84;5077946;28;20474;-56
2021/12/16 01:35:52;;;;;;;22.97;11.87;;;2.70;95.00;;;2.42;67.35;95895.63;5082448;28;20489;-56
2021/12/16 01:41:42;;;;;;;24.17;11.90;;;2.80;94.90;;;2.40;67.63;95896.59;5085019;28;20463;-58
2021/12/16 01:49:49;;;;;;;20.70;12.00;;;2.70;94.80;;;2.32;67.76;95884.78;5052946;28;20491;-57
2021/12/16 01:55:12;;;;;;;18.93;11.47;;;2.60;94.80;;;2.29;67.65;95877.13;5067668;28;20439;-58
2021/12/16 01:57:43;;;;;;;20.33;11.63;;;2.60;94.80;;;2.29;67.59;95882.31;5084997;28;20834;-57
2021/12/16 02:00:15;;;;;;;21.30;10.43;;;2.60;94.80;;;2.31;66.88;95877.06;5080051;28;20443;-57
2021/12/16 02:02:45;;;;;;;19.80;11.37;;;2.60;94.90;;;2.31;67.29;95877.91;5080638;28;20463;-57
2021/12/16 02:05:26;;;;;;;21.40;11.30;;;2.60;95.00;;;2.33;67.29;95877.84;5082560;28;20481;-58
2021/12/16 02:10:41;;;;;;;19.77;10.43;;;2.70;95.00;;;2.40;67.00;95878.41;5078379;28;20439;-57
2021/12/16 02:13:30;;;;;;;24.03;12.30;;;2.70;95.10;;;2.42;67.21;95877.44;5083225;28;20447;-57
2021/12/16 02:30:30;;;;;;;28.17;11.47;;;2.80;95.10;;;2.53;67.46;95878.75;5029202;28;20443;-56
2021/12/16 02:33:07;;;;;;;19.70;10.77;;;2.80;95.10;;;2.55;67.17;95882.13;5028679;28;20836;-57
2021/12/16 02:35:41;;;;;;;17.07;10.70;;;2.90;95.20;;;2.58;68.07;95885.41;5066817;28;20549;-57
2021/12/16 02:38:12;;;;;;;20.23;10.53;;;2.90;95.20;;;2.60;67.09;95890.53;5080531;28;20470;-59
2021/12/16 02:40:40;;;;;;;18.43;10.97;;;2.90;95.20;;;2.61;67.62;95872.31;5080187;28;21030;-57
2021/12/16 02:43:23;;;;;;;24.60;11.63;;;2.90;95.20;;;2.64;67.21;95886.91;5079569;28;20802;-57
2021/12/16 02:48:37;;;;;;;21.33;9.90;;;3.00;95.10;;;2.64;67.62;95877.34;5079248;28;20468;-57
2021/12/16 02:51:11;;;;;;;20.07;10.87;;;3.00;94.90;;;2.64;67.48;95886.91;5080576;28;20506;-57
2021/12/16 02:53:44;;;;;;;22.00;10.70;;;2.90;95.00;;;2.63;67.54;95888.69;5081639;28;20529;-57
2021/12/16 02:56:11;;;;;;;16.77;10.50;;;2.90;95.00;;;2.64;67.60;95885.16;5079868;28;20466;-57
2021/12/16 02:58:41;;;;;;;25.83;11.20;;;2.90;95.10;;;2.67;67.22;95884.19;5080807;28;20488;-57
2021/12/16 03:01:11;;;;;;;22.77;11.73;;;3.00;95.20;;;2.70;67.26;95878.84;5082147;28;20474;-57
2021/12/16 03:03:39;;;;;;;17.90;9.63;;;3.00;95.30;;;2.73;67.88;95883.91;5082613;28;20450;-57
2021/12/16 03:06:07;;;;;;;22.43;11.97;;;3.00;95.30;;;2.77;68.14;95876.81;5079594;28;21050;-57
2021/12/16 03:08:35;;;;;;;22.10;10.80;;;3.10;95.30;;;2.80;67.07;95879.28;5080512;28;20763;-57
2021/12/16 03:11:16;;;;;;;19.30;10.83;;;3.10;95.30;;;2.84;67.20;95881.69;5077068;28;20469;-56
2021/12/16 03:13:55;;;;;;;18.30;11.57;;;3.10;95.20;;;2.87;68.01;95878.13;5086618;28;20482;-57
2021/12/16 03:16:29;;;;;;;18.53;10.40;;;3.10;95.20;;;2.89;67.86;95883.25;5076146;28;20501;-56
2021/12/16 03:19:10;;;;;;;20.57;10.90;;;3.20;95.20;;;2.90;67.39;95879.72;5082291;28;20445;-56
2021/12/16 03:21:42;;;;;;;19.90;10.17;;;3.20;95.20;;;2.92;67.82;95880.50;5080286;28;20501;-57
2021/12/16 03:32:58;;;;;;;18.90;10.10;;;3.30;95.10;;;2.98;67.12;95885.44;5078013;28;20486;-57
2021/12/16 03:35:28;;;;;;;17.63;10.77;;;3.30;95.00;;;2.98;66.93;95890.63;5079979;28;20863;-57
2021/12/16 03:37:56;;;;;;;21.50;11.20;;;3.30;95.00;;;2.92;66.75;95886.53;5079551;28;20443;-56
2021/12/16 03:40:25;;;;;;;19.33;10.00;;;3.20;94.70;;;2.89;66.88;95885.84;5077411;28;20447;-56
2021/12/16 03:42:56;;;;;;;19.27;10.80;;;3.20;94.90;;;2.86;67.28;95884.22;5084960;28;20454;-57
2021/12/16 03:48:14;;;;;;;18.50;10.53;;;3.10;94.90;;;2.82;67.72;95893.91;5076490;28;20442;-58
2021/12/16 03:50:41;;;;;;;19.70;11.30;;;3.10;95.00;;;2.81;67.43;95894.81;5083910;28;20544;-58
2021/12/16 03:53:09;;;;;;;22.97;11.43;;;3.10;95.20;;;2.81;67.75;95894.81;5079594;28;20485;-58
2021/12/16 03:55:36;;;;;;;19.43;11.70;;;3.10;95.10;;;2.82;67.25;95896.50;5082098;28;20827;-56
2021/12/16 03:58:05;;;;;;;18.93;11.53;;;3.10;95.20;;;2.84;67.34;95894.69;5077751;28;20458;-57
2021/12/16 04:00:40;;;;;;;17.13;10.77;;;3.10;95.40;;;2.88;67.83;95895.38;5076177;28;20455;-57
2021/12/16 04:03:07;;;;;;;15.27;9.87;;;3.20;95.40;;;2.89;67.49;95885.84;5082850;28;20456;-57
2021/12/16 04:05:34;;;;;;;16.13;10.10;;;3.20;95.40;;;2.91;67.77;95889.22;5081504;28;20494;-57
2021/12/16 04:08:01;;;;;;;20.90;10.70;;;3.20;95.40;;;2.92;68.22;95881.34;5081007;28;20474;-57
2021/12/16 04:10:34;;;;;;;17.83;9.33;;;3.20;95.30;;;2.94;67.51;95884.72;5082564;28;20889;-58
2021/12/16 04:13:03;;;;;;;18.63;10.60;;;3.20;95.30;;;2.94;67.61;95884.72;5079456;28;20443;-58
2021/12/16 04:15:32;;;;;;;15.63;9.83;;;3.20;95.30;;;2.97;67.20;95878.53;5083985;28;20451;-56
2021/12/16 04:18:00;;;;;;;14.30;9.80;;;3.20;95.30;;;2.97;67.60;95873.34;5078280;28;20443;-58
2021/12/16 04:20:27;;;;;;;18.17;9.70;;;3.20;95.30;;;3.00;67.90;95874.03;5080262;28;20515;-59
2021/12/16 04:22:55;;;;;;;15.80;9.70;;;3.30;95.50;;;3.04;68.16;95875.59;5074073;28;20451;-57
2021/12/16 04:25:24;;;;;;;18.10;10.43;;;3.30;95.30;;;3.06;67.90;95872.94;5078598;28;20482;-57
2021/12/16 04:27:53;;;;;;;17.33;9.80;;;3.30;95.30;;;3.08;67.94;95870.25;5080195;28;20446;-59
2021/12/16 04:30:22;;;;;;;19.97;10.97;;;3.30;95.40;;;3.12;67.40;95869.22;5075965;28;20480;-56
2021/12/16 04:32:50;;;;;;;17.97;10.37;;;3.40;95.40;;;3.12;67.40;95867.47;5076185;28;20459;-58
2021/12/16 04:35:18;;;;;;;20.07;10.50;;;3.40;95.40;;;3.13;67.44;95874.34;5080412;28;20869;-58
2021/12/16 04:37:45;;;;;;;18.73;9.80;;;3.40;95.30;;;3.12;67.20;95867.47;5078868;28;20481;-58
2021/12/16 04:40:13;;;;;;;18.53;10.73;;;3.40;95.20;;;3.12;67.27;95870.06;5076857;28;20447;-58
2021/12/16 04:42:41;;;;;;;17.20;9.50;;;3.40;95.20;;;3.10;67.68;95864.09;5075265;28;20544;-58
2021/12/16 04:45:11;;;;;;;18.03;9.73;;;3.40;95.20;;;3.10;67.36;95863.22;5075354;28;20483;-59
2021/12/16 04:47:38;;;;;;;12.90;8.73;;;3.40;95.20;;;3.09;67.51;95872.78;5073247;28;20470;-58
2021/12/16 04:50:09;;;;;;;21.37;9.80;;;3.40;95.20;;;3.10;67.45;95865.81;5075995;28;20450;-59
2021/12/16 04:52:36;;;;;;;23.03;9.97;;;3.40;95.20;;;3.09;67.78;95861.56;5076444;28;21030;-58
2021/12/16 04:55:04;;;;;;;18.43;9.57;;;3.40;95.30;;;3.09;67.65;95871.97;5075066;28;20505;-58
2021/12/16 04:57:31;;;;;;;17.50;8.97;;;3.40;95.30;;;3.07;67.10;95869.44;5080533;28;20520;-56
2021/12/16 04:59:59;;;;;;;17.10;9.10;;;3.40;95.20;;;3.10;70.78;95869.28;5080999;28;20461;-56
2021/12/16 05:02:26;;;;;;;14.23;8.40;;;3.40;97.90;;;3.18;69.26;95869.78;5074302;28;20994;-57
2021/12/16 05:04:54;;;;;;;13.80;8.23;;;3.40;96.60;;;3.21;69.02;95871.41;5078971;28;20490;-56
2021/12/16 05:07:23;;;;;;;13.40;8.43;;;3.50;96.30;;;3.22;67.98;95863.53;5085561;28;20484;-57
2021/12/16 05:10:04;;;;;;;14.20;8.37;;;3.50;95.90;;;3.18;68.11;95866.34;5072065;28;20541;-56
2021/12/16 05:12:36;;;;;;;11.40;7.30;;;3.50;95.70;;;3.13;67.76;95858.75;5082197;28;20861;-61
2021/12/16 05:15:06;;;;;;;13.07;8.53;;;3.40;95.50;;;3.08;67.42;95865.06;5079948;28;20799;-58
2021/12/16 05:17:38;;;;;;;13.27;9.20;;;3.40;95.40;;;3.05;68.04;95864.31;5081764;28;20484;-59
2021/12/16 05:20:09;;;;;;;14.47;8.73;;;3.30;95.70;;;3.02;67.03;95858.38;5079791;28;20469;-58
2021/12/16 05:25:33;;;;;;;14.70;8.50;;;3.30;95.50;;;2.92;68.38;95867.53;5077408;28;20472;-58
2021/12/16 05:28:01;;;;;;;12.47;7.37;;;3.20;95.40;;;2.86;68.16;95860.84;5078947;28;20816;-57
2021/12/16 05:30:28;;;;;;;16.27;8.57;;;3.20;95.50;;;2.83;68.95;95860.97;5076792;28;20457;-58
2021/12/16 05:32:56;;;;;;;12.33;7.87;;;3.10;95.70;;;2.83;67.80;95860.97;5081499;28;20796;-58
2021/12/16 05:35:24;;;;;;;8.20;6.47;;;3.10;95.70;;;2.81;68.04;95866.22;5080811;28;20442;-58
2021/12/16 05:37:52;;;;;;;9.47;7.17;;;3.10;95.60;;;2.79;67.52;95869.78;5083722;28;20461;-58
2021/12/16 05:40:24;;;;;;;9.63;7.13;;;3.10;95.60;;;2.76;67.98;95863.00;5084608;28;20946;-57
2021/12/16 05:42:52;;;;;;;10.60;7.40;;;3.00;95.60;;;2.76;67.94;95870.78;5082745;28;20431;-59
2021/12/16 05:45:20;;;;;;;9.00;6.93;;;3.00;95.80;;;2.78;68.79;95863.78;5084939;28;20517;-59
2021/12/16 05:47:47;;;;;;;15.93;7.87;;;3.10;95.90;;;2.80;68.69;95866.31;5077055;28;20454;-58
2021/12/16 05:50:14;;;;;;;15.53;7.60;;;3.10;95.80;;;2.80;68.30;95864.53;5073551;28;20916;-58
2021/12/16 05:52:42;;;;;;;12.77;8.30;;;3.10;95.90;;;2.84;68.76;95868.69;5076043;28;20524;-58
2021/12/16 05:55:11;;;;;;;11.00;7.33;;;3.10;96.00;;;2.90;68.19;95871.91;5078577;28;20548;-58
2021/12/16 05:57:39;;;;;;;11.93;7.73;;;3.20;96.10;;;2.95;68.90;95869.97;5073700;28;20478;-57
2021/12/16 06:00:10;;;;;;;13.60;8.40;;;3.20;96.00;;;3.00;68.13;95875.81;5075376;28;20931;-58
2021/12/16 06:02:37;;;;;;;10.00;7.67;;;3.20;95.90;;;3.03;67.87;95873.91;5077489;28;20467;-59
2021/12/16 06:05:05;;;;;;;8.57;6.63;;;3.30;96.00;;;3.04;68.37;95882.56;5077680;28;20451;-58
2021/12/16 06:07:32;;;;;;;12.83;7.27;;;3.30;95.80;;;3.01;68.11;95880.94;5078772;28;20828;-58
2021/12/16 06:10:00;;;;;;;11.27;7.60;;;3.30;95.50;;;2.97;67.55;95875.94;5081833;28;20445;-60
2021/12/16 06:12:29;;;;;;;11.73;7.63;;;3.30;95.50;;;2.95;67.52;95885.56;5080335;28;20508;-59
2021/12/16 06:15:13;;;;;;;11.23;6.47;;;3.20;95.60;;;2.96;68.30;95885.50;5084321;28;20853;-58
2021/12/16 06:28:48;;;;;;;17.97;6.00;;;3.20;95.50;;;2.94;68.22;95876.09;5078096;28;20488;-58
2021/12/16 06:31:16;;;;;;;10.47;7.23;;;3.20;95.50;;;2.93;67.87;95871.78;5080559;28;20462;-58
2021/12/16 06:33:43;;;;;;;13.73;6.97;;;3.20;95.50;;;2.91;67.16;95874.44;5082103;28;20438;-57
2021/12/16 06:36:11;;;;;;;7.00;5.13;;;3.20;95.40;;;2.87;67.59;95871.16;5085329;28;20470;-58
2021/12/16 06:38:38;;;;;;;11.23;6.10;;;3.20;95.50;;;2.85;67.69;95864.34;5086562;28;20523;-59
2021/12/16 06:41:05;;;;;;;8.53;6.00;;;3.20;95.50;;;2.85;67.79;95870.38;5083300;28;20477;-60
2021/12/16 06:43:34;;;;;;;10.20;6.17;;;3.10;95.60;;;2.88;68.33;95866.78;5078345;28;20458;-59
2021/12/16 06:46:07;;;;;;;7.50;6.00;;;3.20;95.70;;;2.92;68.28;95868.34;5079918;28;20498;-61
2021/12/16 06:48:39;;;;;;;10.63;6.93;;;3.20;95.70;;;2.96;68.12;95863.84;5078791;28;20434;-57
2021/12/16 06:51:10;;;;;;;6.40;5.60;;;3.20;95.70;;;3.00;67.52;95868.00;5080355;28;20463;-58
2021/12/16 06:53:47;;;;;;;10.53;7.33;;;3.30;95.60;;;3.00;67.63;95874.03;5078935;28;20439;-57
2021/12/16 06:56:20;;;;;;;15.77;6.93;;;3.30;95.40;;;3.01;67.99;95872.31;5080771;28;20466;-57
2021/12/16 06:58:51;;;;;;;6.40;5.30;;;3.30;95.40;;;3.01;68.23;95878.34;5081211;28;20525;-58
2021/12/16 07:01:31;;;;;;;12.90;10.03;;;3.30;95.40;;;3.02;67.61;95871.38;5079388;28;20902;-57
2021/12/16 07:03:59;;;;;;;23.60;10.20;;;3.30;95.30;;;3.07;67.81;95885.03;5076129;28;20461;-58
2021/12/16 07:06:28;;;;;;;14.13;9.17;;;3.30;95.50;;;3.14;67.29;95886.41;5083063;28;20580;-56
2021/12/16 07:08:58;;;;;;;9.50;6.50;;;3.40;95.60;;;3.18;67.80;95876.75;5077078;28;20454;-58
2021/12/16 07:11:26;;;;;;;8.63;6.70;;;3.50;95.40;;;3.20;68.00;95874.91;5077460;28;20478;-58
2021/12/16 07:13:58;;;;;;;8.83;6.30;;;3.50;95.30;;;3.22;67.63;95873.94;5077874;28;20457;-59
2021/12/16 07:16:28;;;;;;;12.07;6.40;;;3.50;95.20;;;3.28;67.70;95879.75;5079084;28;20458;-58
2021/12/16 07:18:56;;;;;;;8.93;5.67;;;3.50;95.20;;;3.26;66.89;95866.81;5078495;28;20455;-58
2021/12/16 07:21:23;;;;;;;8.20;6.20;;;3.50;95.00;;;3.23;67.00;95878.19;5080259;28;20479;-58
2021/12/16 07:23:51;;;;;;;8.70;6.33;;;3.50;95.00;;;3.25;67.31;95872.09;5082529;28;20531;-58
2021/12/16 07:26:18;;;;;;;8.60;6.13;;;3.50;95.20;;;3.28;66.74;95878.00;5077481;28;20832;-58
2021/12/16 07:28:45;;;;;;;6.63;5.53;;;3.50;95.10;;;3.30;67.53;95875.31;5079867;28;20449;-59
2021/12/16 07:31:13;;;;;;;8.53;6.20;;;3.60;95.10;;;3.32;67.30;95871.75;5080751;28;20481;-57
2021/12/16 07:33:41;;;;;;;21.07;11.53;;;3.60;94.90;;;3.33;67.28;95870.84;5076942;28;20453;-59
2021/12/16 07:36:09;;;;;;;6.30;5.00;;;3.60;94.90;;;3.38;66.89;95878.44;5076906;28;20542;-58
2021/12/16 07:38:37;;;;;;;7.80;5.87;;;3.70;95.00;;;3.39;66.77;95874.88;5082619;28;20464;-59
2021/12/16 07:41:05;;;;;;;6.90;4.60;;;3.70;94.80;;;3.40;66.58;95887.00;5081903;28;20475;-59
2021/12/16 07:43:54;;;;;;;6.87;5.47;;;3.70;94.80;;;3.39;66.83;95874.88;5080744;28;20442;-59
2021/12/16 07:46:22;;;;;;;7.80;4.87;;;3.70;94.80;;;3.41;66.82;95879.13;5082496;28;20501;-58
2021/12/16 07:48:50;;;;;;;7.93;5.40;;;3.70;94.80;;;3.43;67.25;95884.25;5083872;28;20523;-59
2021/12/16 07:51:18;;;;;;;11.07;5.30;;;3.70;94.80;;;3.47;66.72;95880.59;5081718;28;20549;-58
2021/12/16 07:53:45;;;;;;;6.23;5.23;;;3.70;95.20;;;3.52;67.16;95886.41;5079283;28;20451;-59
2021/12/16 07:56:13;;;;;;;5.07;4.57;;;3.80;94.90;;;3.55;67.03;95873.28;5082784;28;20467;-56
2021/12/16 07:58:40;;;;;;;5.80;4.60;;;3.80;94.90;;;3.58;66.85;95877.50;5075361;28;20450;-57
2021/12/16 08:01:08;;;;;;;11.50;5.63;;;3.80;94.80;;;3.61;66.72;95879.09;5074759;28;21108;-58
2021/12/16 08:03:36;;;;;;;5.00;4.37;;;3.90;94.70;;;3.63;66.35;95882.47;5076340;28;20501;-58
2021/12/16 08:06:08;;;;;;;5.50;4.50;;;3.90;94.70;;;3.66;66.52;95887.53;5081348;28;20497;-59
2021/12/16 08:08:35;;;;;;;7.10;5.30;;;3.90;94.70;;;3.68;66.47;95883.94;5083356;28;20446;-58
2021/12/16 08:11:03;;;;;;;10.97;5.67;;;3.90;94.50;;;3.72;65.97;95887.25;5079926;28;20477;-59
2021/12/16 08:13:31;;;;;;;5.60;4.70;;;4.00;94.50;;;3.75;66.41;95890.53;5078624;28;20450;-57
2021/12/16 08:15:59;;;;;;;6.47;5.30;;;4.00;94.50;;;3.78;66.00;95897.38;5083120;28;20474;-59
2021/12/16 08:18:27;;;;;;;7.20;5.40;;;4.00;94.40;;;3.81;66.21;95892.03;5076290;28;20512;-57
2021/12/16 08:20:54;;;;;;;7.53;5.50;;;4.10;94.50;;;3.85;66.44;95896.13;5072990;28;20467;-58
2021/12/16 08:23:23;;;;;;;7.57;6.13;;;4.10;94.50;;;3.88;66.19;95892.56;5077380;28;20447;-60
2021/12/16 08:25:51;;;;;;;5.73;5.13;;;4.10;94.50;;;3.89;66.55;95895.09;5076494;28;20473;-60
2021/12/16 08:28:18;;;;;;;7.10;6.00;;;4.10;94.50;;;3.92;66.55;95888.91;5081654;28;20955;-59
2021/12/16 08:30:48;;;;;;;7.50;5.10;;;4.10;94.50;;;3.96;66.20;95893.03;5083248;28;20472;-58
2021/12/16 08:33:16;;;;;;;6.83;6.10;;;4.20;94.50;;;4.00;66.38;95891.97;5078540;28;20736;-58
2021/12/16 08:35:45;;;;;;;10.17;5.93;;;4.20;94.50;;;4.04;66.04;95882.25;5078576;28;20465;-58
2021/12/16 08:38:15;;;;;;;8.57;4.93;;;4.30;94.60;;;4.07;66.37;95887.28;5077658;28;20462;-59
2021/12/16 08:40:44;;;;;;;6.03;5.07;;;4.30;94.40;;;4.08;65.99;95879.41;5081606;28;20467;-58
2021/12/16 08:43:12;;;;;;;7.00;6.17;;;4.30;94.30;;;4.10;65.96;95876.72;5074399;28;20450;-59
2021/12/16 08:45:40;;;;;;;6.40;5.80;;;4.30;94.30;;;4.11;66.05;95878.44;5083262;28;20446;-59
2021/12/16 08:48:07;;;;;;;10.00;6.80;;;4.40;94.30;;;4.12;65.90;95874.88;5076078;28;20555;-58
2021/12/16 08:50:37;;;;;;;6.93;5.70;;;4.40;94.40;;;4.14;65.81;95870.47;5079473;28;20443;-59
2021/12/16 08:53:05;;;;;;;8.10;5.40;;;4.40;94.40;;;4.19;65.71;95878.88;5075400;28;20443;-59
2021/12/16 08:55:33;;;;;;;8.23;4.90;;;4.40;94.30;;;4.20;65.72;95877.97;5078811;28;20451;-59
2021/12/16 08:58:02;;;;;;;5.30;4.80;;;4.40;94.30;;;4.22;65.59;95870.09;5077480;28;20451;-58
2021/12/16 09:00:31;;;;;;;8.13;6.87;;;4.50;94.20;;;4.25;65.84;95864.72;5076776;28;20519;-58
2021/12/16 09:02:58;;;;;;;5.70;4.37;;;4.50;94.30;;;4.27;65.66;95866.31;5074953;28;20435;-59
2021/12/16 09:05:26;;;;;;;4.40;4.00;;;4.50;94.20;;;4.27;65.65;95857.66;5080691;28;20798;-58
2021/12/16 09:07:54;;;;;;;5.00;4.50;;;4.50;94.00;;;4.26;65.40;95862.03;5076354;28;20580;-59
2021/12/16 09:10:25;;;;;;;8.00;4.37;;;4.50;94.00;;;4.25;65.34;95860.34;5077963;28;20442;-58
2021/12/16 09:13:02;;;;;;;4.70;4.30;;;4.50;93.90;;;4.24;65.02;95855.22;5078142;28;20461;-57
2021/12/16 09:15:32;;;;;;;5.23;4.73;;;4.50;93.90;;;4.25;65.33;95852.53;5080079;28;20533;-58
2021/12/16 09:18:00;;;;;;;4.73;4.43;;;4.50;93.90;;;4.25;65.58;95849.94;5079927;28;20454;-58
2021/12/16 09:20:27;;;;;;;4.80;4.40;;;4.50;93.90;;;4.24;65.02;95848.25;5080122;28;20453;-58
2021/12/16 09:22:55;;;;;;;6.10;5.50;;;4.50;93.60;;;4.24;65.21;95856.06;5076652;28;20482;-60
2021/12/16 09:25:22;;;;;;;5.07;4.60;;;4.50;93.80;;;4.20;65.18;95851.06;5076028;28;20538;-58
2021/12/16 09:27:50;;;;;;;4.30;3.97;;;4.40;93.60;;;4.15;65.20;95855.69;5077062;28;20501;-59
2021/12/16 09:30:19;;;;;;;4.27;3.87;;;4.40;93.50;;;4.09;65.07;95851.59;5080865;28;20447;-58
2021/12/16 09:32:51;;;;;;;4.10;3.70;;;4.30;93.50;;;4.05;65.26;95848.31;5078769;28;20451;-59
2021/12/16 09:35:18;;;;;;;4.50;4.10;;;4.30;93.60;;;4.04;65.35;95851.00;5074567;28;20446;-58
2021/12/16 09:37:46;;;;;;;4.20;3.80;;;4.30;94.00;;;4.03;65.17;95844.09;5080677;28;20465;-59
2021/12/16 09:40:18;;;;;;;6.80;3.30;;;4.30;93.70;;;4.00;65.41;95839.03;5079666;28;20807;-59
2021/12/16 09:42:45;;;;;;;4.00;3.60;;;4.30;93.80;;;4.02;64.97;95843.25;5082891;28;21004;-59
2021/12/16 09:45:14;;;;;;;3.97;3.67;;;4.30;93.80;;;4.05;65.69;95839.69;5088362;28;20442;-59
2021/12/16 09:47:43;;;;;;;5.13;4.40;;;4.30;93.90;;;4.09;65.38;95843.78;5087669;28;20482;-62
2021/12/16 09:50:17;;;;;;;4.63;4.23;;;4.30;93.90;;;4.09;65.45;95833.38;5085351;28;20457;-59
2021/12/16 09:52:44;;;;;;;4.07;3.67;;;4.30;93.80;;;4.10;65.50;95835.91;5081629;28;20468;-59
2021/12/16 09:55:12;;;;;;;5.87;3.80;;;4.40;93.90;;;4.12;65.41;95838.44;5083493;28;20927;-58
2021/12/16 09:57:41;;;;;;;3.63;3.33;;;4.40;94.20;;;4.11;65.04;95837.59;5084342;28;20770;-59
2021/12/16 10:00:10;;;;;;;4.50;4.10;;;4.40;93.80;;;4.10;65.52;95840.28;5082038;28;20442;-60
2021/12/16 10:02:38;;;;;;;4.20;3.90;;;4.40;93.80;;;4.07;65.20;95830.03;5080119;28;20893;-59
2021/12/16 10:05:07;;;;;;;4.13;3.83;;;4.30;93.80;;;4.03;65.38;95823.28;5086822;28;20434;-59
2021/12/16 10:07:36;;;;;;;5.37;4.50;;;4.30;93.80;;;3.96;65.22;95830.56;5082934;28;21093;-58
2021/12/16 10:10:06;;;;;;;3.73;3.37;;;4.30;93.90;;;3.97;65.51;95832.25;5082493;28;20446;-59
2021/12/16 10:12:38;;;;;;;5.57;3.80;;;4.20;93.90;;;3.97;65.34;95831.38;5086814;28;20557;-59
2021/12/16 10:17:22;;;;;;;4.53;3.73;;;4.20;94.00;;;3.96;65.81;95827.94;5079679;28;20517;-58
2021/12/16 10:17:55;;;;;;;3.80;3.50;;;4.20;94.00;;;3.96;65.75;95822.75;5084775;28;20434;-59
2021/12/16 10:20:26;;;;;;;3.80;3.50;;;4.20;94.10;;;3.97;66.11;95818.38;5079681;28;20518;-57
2021/12/16 10:23:02;;;;;;;3.90;3.60;;;4.20;94.20;;;3.97;65.70;95814.03;5082131;28;20513;-58
2021/12/16 10:25:31;;;;;;;5.53;3.87;;;4.20;94.20;;;4.00;66.09;95815.63;5080601;28;20978;-59
2021/12/16 10:28:03;;;;;;;4.77;3.90;;;4.20;94.20;;;3.99;65.51;95813.94;5079450;28;20489;-59
2021/12/16 10:30:46;;;;;;;3.60;3.30;;;4.30;94.20;;;3.96;65.88;95799.31;5082878;28;20519;-58
2021/12/16 10:33:19;;;;;;;4.83;4.30;;;4.20;94.20;;;3.93;66.38;95795.13;5083284;28;20450;-59
2021/12/16 10:35:47;;;;;;;4.03;3.73;;;4.20;94.20;;;3.98;65.82;95794.88;5085102;28;20840;-57
2021/12/16 10:38:18;;;;;;;4.10;3.70;;;4.20;94.20;;;4.01;66.14;95799.09;5078011;28;20459;-58
2021/12/16 10:40:49;;;;;;;8.00;4.17;;;4.30;94.20;;;4.03;66.08;95802.44;5078638;28;20474;-59
2021/12/16 10:43:24;;;;;;;3.90;3.60;;;4.30;94.20;;;4.04;66.03;95793.72;5074087;28;20553;-58
2021/12/16 10:45:54;;;;;;;4.50;4.10;;;4.30;94.20;;;4.03;65.91;95792.03;5079145;28;20581;-59
2021/12/16 10:48:25;;;;;;;4.33;4.03;;;4.30;94.10;;;4.05;66.01;95787.63;5078260;28;20490;-58
2021/12/16 10:51:20;;;;;;;6.30;3.97;;;4.30;94.30;;;4.08;65.57;95783.09;5077357;28;20513;-60
2021/12/16 10:54:05;;;;;;;4.83;4.13;;;4.30;94.10;;;4.11;66.01;95782.09;5084319;28;20545;-59
2021/12/16 10:56:37;;;;;;;6.00;4.63;;;4.30;94.10;;;4.16;65.72;95787.06;5082057;28;20477;-58
2021/12/16 10:59:08;;;;;;;4.50;4.03;;;4.40;94.20;;;4.20;65.52;95784.25;5085565;28;20458;-57
2021/12/16 11:01:49;;;;;;;4.40;4.00;;;4.50;94.10;;;4.23;65.58;95784.09;5083632;28;20476;-60
2021/12/16 11:04:29;;;;;;;5.27;4.50;;;4.50;94.00;;;4.24;65.44;95775.31;5081176;28;20533;-59
2021/12/16 11:06:59;;;;;;;4.53;4.10;;;4.50;93.90;;;4.21;65.13;95775.47;5077679;28;20486;-59
2021/12/16 11:09:41;;;;;;;4.10;3.70;;;4.50;93.90;;;4.21;65.72;95775.47;5081708;28;20800;-58
2021/12/16 11:12:16;;;;;;;7.70;5.50;;;4.50;93.90;;;4.25;65.43;95769.22;5079406;28;20471;-59
2021/12/16 11:14:45;;;;;;;5.07;4.60;;;4.50;94.10;;;4.30;65.54;95775.00;5083667;28;20944;-58
2021/12/16 11:17:15;;;;;;;9.07;6.00;;;4.50;94.10;;;4.34;65.46;95775.72;5082501;28;20466;-59
2021/12/16 11:19:47;;;;;;;14.43;6.97;;;4.60;94.00;;;4.40;65.60;95761.50;5084201;28;20543;-59
2021/12/16 11:22:16;;;;;;;9.40;4.43;;;4.60;94.00;;;4.45;65.04;95764.75;5077902;28;20590;-58
2021/12/16 11:24:45;;;;;;;8.07;5.00;;;4.70;94.00;;;4.50;65.42;95760.13;5082407;28;20447;-59
2021/12/16 11:27:32;;;;;;;6.40;4.43;;;4.70;94.00;;;4.57;65.33;95763.22;5079197;28;20918;-58
2021/12/16 11:30:00;;;;;;;9.93;6.60;;;4.70;94.00;;;4.59;65.33;95762.25;5081838;28;20446;-58
2021/12/16 11:32:41;;;;;;;7.17;6.47;;;4.80;93.80;;;4.60;65.32;95766.53;5079445;28;20459;-58
2021/12/16 11:35:31;;;;;;;11.97;7.30;;;4.80;94.10;;;4.63;65.18;95760.31;5080047;28;20891;-58
2021/12/16 11:38:00;;;;;;;8.50;5.53;;;4.90;93.70;;;4.66;65.11;95762.75;5074032;28;20478;-59
2021/12/16 11:40:28;;;;;;;14.90;7.43;;;4.90;93.70;;;4.67;64.87;95764.44;5077411;28;20508;-58
2021/12/16 11:43:01;;;;;;;8.47;5.77;;;4.90;93.60;;;4.65;64.82;95759.31;5078491;28;20512;-59
2021/12/16 11:45:37;;;;;;;7.30;5.93;;;4.90;93.50;;;4.59;64.58;95754.44;5079888;28;20438;-59
2021/12/16 11:48:05;;;;;;;10.40;5.80;;;4.90;93.40;;;4.52;64.52;95747.84;5077546;28;20490;-59
2021/12/16 11:50:40;;;;;;;10.00;6.40;;;4.80;93.30;;;4.48;65.11;95761.97;5080304;28;20459;-59
2021/12/16 11:53:08;;;;;;;11.00;7.00;;;4.70;93.40;;;4.46;65.13;95753.38;5077671;28;20450;-58
2021/12/16 11:55:37;;;;;;;10.90;6.90;;;4.70;93.60;;;4.47;65.03;95755.91;5074256;28;21088;-58
2021/12/16 11:58:06;;;;;;;8.13;5.10;;;4.70;93.60;;;4.48;64.96;95757.59;5072645;28;20461;-58
2021/12/16 12:00:35;;;;;;;10.10;5.60;;;4.70;93.50;;;4.52;64.99;95753.06;5079213;28;20451;-57
2021/12/16 12:03:05;;;;;;;8.10;7.23;;;4.70;93.60;;;4.57;65.00;95753.69;5072703;28;20459;-58
2021/12/16 12:05:35;;;;;;;8.70;6.70;;;4.80;93.70;;;4.62;65.20;95751.66;5076276;28;20997;-58
2021/12/16 12:08:04;;;;;;;8.67;6.10;;;4.80;93.70;;;4.65;65.05;95745.44;5076906;28;20506;-59
2021/12/16 12:10:42;;;;;;;11.30;7.97;;;4.90;93.60;;;4.70;64.91;95753.84;5078172;28;20971;-58
2021/12/16 12:13:11;;;;;;;9.73;7.30;;;4.90;93.60;;;4.71;64.99;95742.53;5077796;28;20446;-59
2021/12/16 12:15:55;;;;;;;8.03;6.77;;;4.90;93.50;;;4.75;64.67;95748.41;5082817;28;20455;-59
2021/12/16 12:18:34;;;;;;;8.33;6.60;;;5.00;93.60;;;4.77;64.67;95746.53;5075053;28;20498;-58
2021/12/16 12:21:27;;;;;;;9.80;7.40;;;5.00;93.50;;;4.78;64.53;95748.22;5073906;28;21049;-58
2021/12/16 12:23:56;;;;;;;8.60;6.93;;;5.00;93.40;;;4.78;64.64;95738.63;5080908;28;20508;-60
2021/12/16 12:26:26;;;;;;;11.20;7.77;;;5.00;93.40;;;4.81;64.78;95748.06;5076674;28;20539;-59
2021/12/16 12:28:55;;;;;;;8.17;7.03;;;5.00;93.40;;;4.83;64.57;95738.38;5082326;28;20548;-59
2021/12/16 12:31:25;;;;;;;10.60;6.97;;;5.00;93.40;;;4.86;64.51;95751.25;5081928;28;20478;-59
2021/12/16 12:33:52;;;;;;;8.67;6.57;;;5.10;93.30;;;4.89;64.58;95747.66;5079422;28;20450;-59
2021/12/16 12:36:20;;;;;;;15.63;6.80;;;5.10;93.50;;;4.87;64.56;95747.72;5083319;28;21056;-59